La rose des vents
Données météo: Semaine 30/03/26 - 05/04/26 (S 14)
Date Horaire Temp. E. Hum. E. P.atmo. Pluie Vent Ø 1mn Direction Ensoleilleme Ev.Tr. Solaire P. de rosée Temp au vent Rafales
30/03/2026 00:00 10,9 °C 51 % 1017,8 hPa 0,0 mm 0,0 km/h (0 Bft) - - 0,00 h 0,051 mm 0 W/m² 1,2 °C 10,9 °C 0,0 km/h (0 Bft)
30/03/2026 01:00 10,2 °C 54 % 1017,9 hPa 0,0 mm 0,0 km/h (0 Bft) - - 0,00 h 0,025 mm 0 W/m² 1,4 °C 10,2 °C 0,0 km/h (0 Bft)
30/03/2026 02:00 9,8 °C 55 % 1017,9 hPa 0,0 mm 0,0 km/h (0 Bft) - - 0,00 h 0,025 mm 0 W/m² 1,2 °C 9,8 °C 0,0 km/h (0 Bft)
30/03/2026 03:00 9,1 °C 57 % 1017,4 hPa 0,0 mm 0,0 km/h (0 Bft) - - 0,00 h 0,025 mm 0 W/m² 1,1 °C 9,1 °C 0,0 km/h (0 Bft)
30/03/2026 04:00 9,4 °C 55 % 1017,0 hPa 0,0 mm 0,0 km/h (0 Bft) - - 0,00 h 0,025 mm 0 W/m² 0,7 °C 9,4 °C 0,0 km/h (0 Bft)
30/03/2026 05:00 9,9 °C 53 % 1016,8 hPa 0,0 mm 0,0 km/h (0 Bft) - - 0,00 h 0,025 mm 0 W/m² 0,7 °C 9,9 °C 0,0 km/h (0 Bft)
30/03/2026 06:00 9,3 °C 55 % 1016,6 hPa 0,0 mm 0,0 km/h (0 Bft) - - 0,00 h 0,025 mm 0 W/m² 0,7 °C 9,3 °C 0,0 km/h (0 Bft)
30/03/2026 07:00 9,2 °C 54 % 1016,2 hPa 0,0 mm 0,0 km/h (0 Bft) - - 0,03 h 0,000 mm 15 W/m² 0,4 °C 9,2 °C 0,0 km/h (0 Bft)
30/03/2026 08:00 9,4 °C 57 % 1015,8 hPa 0,0 mm 0,0 km/h (0 Bft) - - 0,05 h 0,025 mm 56 W/m² 1,3 °C 9,4 °C 0,0 km/h (0 Bft)
30/03/2026 09:00 11,9 °C 57 % 1015,3 hPa 0,0 mm 0,0 km/h (0 Bft) - - 0,97 h 0,025 mm 360 W/m² 3,6 °C 11,9 °C 0,0 km/h (0 Bft)
30/03/2026 10:00 16,2 °C 47 % 1014,6 hPa 0,0 mm 0,0 km/h (0 Bft) - - 1,00 h 0,178 mm 526 W/m² 4,8 °C 16,2 °C 0,0 km/h (0 Bft)
30/03/2026 11:00 18,4 °C 42 % 1013,5 hPa 0,0 mm 0,0 km/h (0 Bft) - - 1,00 h 0,279 mm 660 W/m² 5,3 °C 18,4 °C 0,0 km/h (0 Bft)
30/03/2026 12:00 19,4 °C 45 % 1012,4 hPa 0,0 mm 0,0 km/h (0 Bft) - - 1,00 h 0,381 mm 742 W/m² 7,0 °C 19,4 °C 0,0 km/h (0 Bft)
30/03/2026 13:00 20,5 °C 41 % 1010,8 hPa 0,0 mm 0,0 km/h (0 Bft) - - 1,00 h 0,432 mm 783 W/m² 6,8 °C 20,5 °C 0,0 km/h (0 Bft)
30/03/2026 14:00 20,9 °C 39 % 1009,1 hPa 0,0 mm 0,0 km/h (0 Bft) - - 1,00 h 0,457 mm 759 W/m² 6,5 °C 20,9 °C 0,0 km/h (0 Bft)
30/03/2026 15:00 20,2 °C 39 % 1007,7 hPa 0,0 mm 0,0 km/h (0 Bft) - - 1,00 h 0,457 mm 679 W/m² 5,8 °C 20,2 °C 0,0 km/h (0 Bft)
30/03/2026 16:00 18,9 °C 50 % 1006,4 hPa 0,0 mm 0,0 km/h (0 Bft) - - 1,00 h 0,406 mm 552 W/m² 8,3 °C 18,9 °C 0,0 km/h (0 Bft)
30/03/2026 17:00 17,4 °C 54 % 1005,2 hPa 0,0 mm 0,0 km/h (0 Bft) - - 1,00 h 0,305 mm 388 W/m² 7,9 °C 17,4 °C 0,0 km/h (0 Bft)
30/03/2026 18:00 15,0 °C 65 % 1005,7 hPa 0,0 mm 0,0 km/h (0 Bft) - - 0,88 h 0,229 mm 195 W/m² 8,5 °C 15,0 °C 0,0 km/h (0 Bft)
30/03/2026 19:00 13,0 °C 74 % 1006,7 hPa 0,0 mm 0,0 km/h (0 Bft) - - 0,00 h 0,102 mm 17 W/m² 8,5 °C 13,0 °C 0,0 km/h (0 Bft)
30/03/2026 20:00 11,4 °C 81 % 1007,7 hPa 0,0 mm 0,0 km/h (0 Bft) - - 0,00 h 0,000 mm 0 W/m² 8,3 °C 11,4 °C 0,0 km/h (0 Bft)
30/03/2026 21:00 10,4 °C 85 % 1008,4 hPa 0,0 mm 0,0 km/h (0 Bft) - - 0,00 h 0,000 mm 0 W/m² 8,1 °C 10,4 °C 0,0 km/h (0 Bft)
30/03/2026 22:00 9,9 °C 87 % 1008,7 hPa 0,0 mm 0,0 km/h (0 Bft) - - 0,00 h 0,000 mm 0 W/m² 7,8 °C 9,9 °C 0,0 km/h (0 Bft)
30/03/2026 23:00 9,7 °C 82 % 1009,1 hPa 0,0 mm 0,0 km/h (0 Bft) - - 0,00 h 0,000 mm 0 W/m² 6,7 °C 9,7 °C 0,0 km/h (0 Bft)
31/03/2026 00:00 9,1 °C 82 % 1009,5 hPa 0,0 mm 0,0 km/h (0 Bft) - - 0,00 h 0,025 mm 0 W/m² 6,1 °C 9,1 °C 0,0 km/h (0 Bft)
31/03/2026 01:00 8,7 °C 79 % 1009,6 hPa 0,0 mm 0,0 km/h (0 Bft) - - 0,00 h 0,000 mm 0 W/m² 5,4 °C 8,7 °C 0,0 km/h (0 Bft)
31/03/2026 02:00 8,5 °C 70 % 1010,1 hPa 0,0 mm 0,0 km/h (0 Bft) - - 0,00 h 0,025 mm 0 W/m² 3,5 °C 8,5 °C 0,0 km/h (0 Bft)
31/03/2026 03:00 8,6 °C 58 % 1010,3 hPa 0,0 mm 0,0 km/h (0 Bft) - - 0,00 h 0,025 mm 0 W/m² 0,8 °C 8,6 °C 0,0 km/h (0 Bft)
31/03/2026 04:00 8,5 °C 53 % 1010,4 hPa 0,0 mm 0,0 km/h (0 Bft) - - 0,00 h 0,025 mm 0 W/m² -0,4 °C 8,5 °C 0,0 km/h (0 Bft)
31/03/2026 05:00 7,7 °C 52 % 1010,6 hPa 0,0 mm 0,0 km/h (0 Bft) - - 0,00 h 0,025 mm 0 W/m² -1,4 °C 7,7 °C 0,0 km/h (0 Bft)
31/03/2026 06:00 8,1 °C 48 % 1011,0 hPa 0,0 mm 0,0 km/h (0 Bft) - - 0,00 h 0,025 mm 0 W/m² -2,3 °C 8,1 °C 0,0 km/h (0 Bft)
31/03/2026 07:00 8,3 °C 44 % 1011,6 hPa 0,0 mm 0,0 km/h (0 Bft) - - 0,02 h 0,000 mm 12 W/m² -3,2 °C 8,3 °C 0,0 km/h (0 Bft)
31/03/2026 08:00 8,8 °C 45 % 1012,3 hPa 0,0 mm 0,0 km/h (0 Bft) - - 0,02 h 0,025 mm 36 W/m² -2,5 °C 8,8 °C 0,0 km/h (0 Bft)
31/03/2026 09:00 11,5 °C 43 % 1012,8 hPa 0,0 mm 0,0 km/h (0 Bft) - - 1,00 h 0,025 mm 370 W/m² -0,6 °C 11,5 °C 0,0 km/h (0 Bft)
31/03/2026 10:00 16,1 °C 31 % 1012,7 hPa 0,0 mm 0,0 km/h (0 Bft) - - 1,00 h 0,178 mm 547 W/m² -1,2 °C 16,1 °C 0,0 km/h (0 Bft)
31/03/2026 11:00 18,2 °C 26 % 1013,0 hPa 0,0 mm 0,0 km/h (0 Bft) - - 1,00 h 0,305 mm 712 W/m² -1,8 °C 18,2 °C 0,0 km/h (0 Bft)
31/03/2026 12:00 18,9 °C 24 % 1013,0 hPa 0,0 mm 0,0 km/h (0 Bft) - - 0,97 h 0,381 mm 813 W/m² -2,2 °C 18,9 °C 0,0 km/h (0 Bft)
31/03/2026 13:00 19,0 °C 22 % 1012,4 hPa 0,0 mm 0,0 km/h (0 Bft) - - 0,87 h 0,457 mm 772 W/m² -3,4 °C 19,0 °C 0,0 km/h (0 Bft)
31/03/2026 14:00 20,0 °C 21 % 1011,8 hPa 0,0 mm 0,0 km/h (0 Bft) - - 1,00 h 0,432 mm 837 W/m² -3,1 °C 20,0 °C 0,0 km/h (0 Bft)
31/03/2026 15:00 20,0 °C 20 % 1010,9 hPa 0,0 mm 0,0 km/h (0 Bft) - - 0,73 h 0,483 mm 587 W/m² -3,5 °C 20,0 °C 0,0 km/h (0 Bft)
31/03/2026 16:00 18,5 °C 22 % 1010,0 hPa 0,0 mm 0,0 km/h (0 Bft) - - 0,43 h 0,356 mm 326 W/m² -3,5 °C 18,5 °C 0,0 km/h (0 Bft)
31/03/2026 17:00 17,4 °C 27 % 1010,2 hPa 0,0 mm 0,0 km/h (0 Bft) - - 0,73 h 0,229 mm 352 W/m² -1,6 °C 17,4 °C 0,0 km/h (0 Bft)
31/03/2026 18:00 15,1 °C 26 % 1010,6 hPa 0,0 mm 0,0 km/h (0 Bft) - - 0,03 h 0,203 mm 57 W/m² -4,2 °C 15,1 °C 0,0 km/h (0 Bft)
31/03/2026 19:00 13,4 °C 27 % 1011,7 hPa 0,0 mm 0,0 km/h (0 Bft) - - 0,00 h 0,051 mm 14 W/m² -5,4 °C 13,4 °C 0,0 km/h (0 Bft)
31/03/2026 20:00 11,7 °C 26 % 1012,5 hPa 0,0 mm 0,0 km/h (0 Bft) - - 0,00 h 0,025 mm 0 W/m² -7,2 °C 11,7 °C 0,0 km/h (0 Bft)
31/03/2026 21:00 10,3 °C 28 % 1013,3 hPa 0,0 mm 0,0 km/h (0 Bft) - - 0,00 h 0,025 mm 0 W/m² -7,4 °C 10,3 °C 0,0 km/h (0 Bft)
31/03/2026 22:00 9,1 °C 30 % 1013,8 hPa 0,0 mm 0,0 km/h (0 Bft) - - 0,00 h 0,051 mm 0 W/m² -7,7 °C 9,1 °C 0,0 km/h (0 Bft)
31/03/2026 23:00 8,4 °C 30 % 1013,7 hPa 0,0 mm 0,0 km/h (0 Bft) - - 0,00 h 0,051 mm 0 W/m² -8,2 °C 8,4 °C 0,0 km/h (0 Bft)
01/04/2026 00:00 8,2 °C 28 % 1013,7 hPa 0,0 mm 0,0 km/h (0 Bft) - - 0,00 h 0,000 mm 0 W/m² -9,0 °C 8,2 °C 0,0 km/h (0 Bft)
01/04/2026 01:00 7,8 °C 28 % 1013,6 hPa 0,0 mm 0,0 km/h (0 Bft) - - 0,00 h 0,051 mm 0 W/m² -9,6 °C 7,8 °C 0,0 km/h (0 Bft)
01/04/2026 02:00 7,5 °C 28 % 1013,2 hPa 0,0 mm 0,0 km/h (0 Bft) - - 0,00 h 0,051 mm 0 W/m² -9,6 °C 7,5 °C 0,0 km/h (0 Bft)
01/04/2026 03:00 7,1 °C 29 % 1012,9 hPa 0,0 mm 0,0 km/h (0 Bft) - - 0,00 h 0,051 mm 0 W/m² -9,6 °C 7,1 °C 0,0 km/h (0 Bft)
01/04/2026 04:00 6,8 °C 30 % 1012,4 hPa 0,0 mm 0,0 km/h (0 Bft) - - 0,00 h 0,051 mm 0 W/m² -9,6 °C 6,8 °C 0,0 km/h (0 Bft)
01/04/2026 05:00 6,4 °C 32 % 1012,0 hPa 0,0 mm 0,0 km/h (0 Bft) - - 0,00 h 0,051 mm 0 W/m² -9,1 °C 6,4 °C 0,0 km/h (0 Bft)
01/04/2026 06:00 6,4 °C 32 % 1011,8 hPa 0,0 mm 0,0 km/h (0 Bft) - - 0,00 h 0,051 mm 0 W/m² -9,0 °C 6,4 °C 0,0 km/h (0 Bft)
01/04/2026 07:00 5,9 °C 33 % 1011,8 hPa 0,0 mm 0,0 km/h (0 Bft) - - 0,02 h 0,000 mm 13 W/m² -9,2 °C 5,9 °C 0,0 km/h (0 Bft)
01/04/2026 08:00 6,6 °C 34 % 1011,8 hPa 0,0 mm 0,0 km/h (0 Bft) - - 0,05 h 0,025 mm 46 W/m² -7,9 °C 6,6 °C 0,0 km/h (0 Bft)
01/04/2026 09:00 10,1 °C 28 % 1011,4 hPa 0,0 mm 0,0 km/h (0 Bft) - - 1,00 h 0,025 mm 373 W/m² -7,6 °C 10,1 °C 0,0 km/h (0 Bft)
01/04/2026 10:00 14,3 °C 24 % 1011,2 hPa 0,0 mm 0,0 km/h (0 Bft) - - 1,00 h 0,178 mm 548 W/m² -6,2 °C 14,3 °C 0,0 km/h (0 Bft)
01/04/2026 11:00 16,4 °C 21 % 1010,8 hPa 0,0 mm 0,0 km/h (0 Bft) - - 1,00 h 0,279 mm 684 W/m² -5,8 °C 16,4 °C 0,0 km/h (0 Bft)
01/04/2026 12:00 17,1 °C 24 % 1010,3 hPa 0,0 mm 0,0 km/h (0 Bft) - - 1,00 h 0,381 mm 772 W/m² -3,8 °C 17,1 °C 0,0 km/h (0 Bft)
01/04/2026 13:00 17,5 °C 26 % 1009,6 hPa 0,0 mm 0,0 km/h (0 Bft) - - 1,00 h 0,432 mm 805 W/m² -2,2 °C 17,5 °C 0,0 km/h (0 Bft)
01/04/2026 14:00 17,6 °C 25 % 1009,0 hPa 0,0 mm 0,0 km/h (0 Bft) - - 1,00 h 0,457 mm 760 W/m² -2,8 °C 17,6 °C 0,0 km/h (0 Bft)
01/04/2026 15:00 17,9 °C 24 % 1008,5 hPa 0,0 mm 0,0 km/h (0 Bft) - - 1,00 h 0,432 mm 697 W/m² -2,9 °C 17,9 °C 0,0 km/h (0 Bft)
01/04/2026 16:00 18,0 °C 25 % 1008,2 hPa 0,0 mm 0,0 km/h (0 Bft) - - 1,00 h 0,406 mm 564 W/m² -2,2 °C 18,0 °C 0,0 km/h (0 Bft)
01/04/2026 17:00 16,7 °C 30 % 1008,1 hPa 0,0 mm 0,0 km/h (0 Bft) - - 1,00 h 0,330 mm 397 W/m² -1,1 °C 16,7 °C 0,0 km/h (0 Bft)
01/04/2026 18:00 15,3 °C 33 % 1008,3 hPa 0,0 mm 0,0 km/h (0 Bft) - - 0,83 h 0,229 mm 199 W/m² -0,7 °C 15,3 °C 0,0 km/h (0 Bft)
01/04/2026 19:00 13,4 °C 38 % 1008,6 hPa 0,0 mm 0,0 km/h (0 Bft) - - 0,02 h 0,102 mm 19 W/m² -0,6 °C 13,4 °C 0,0 km/h (0 Bft)
01/04/2026 20:00 11,6 °C 37 % 1009,0 hPa 0,0 mm 0,0 km/h (0 Bft) - - 0,00 h 0,025 mm 5 W/m² -2,7 °C 11,6 °C 0,0 km/h (0 Bft)
01/04/2026 21:00 10,4 °C 40 % 1009,5 hPa 0,0 mm 0,0 km/h (0 Bft) - - 0,00 h 0,000 mm 0 W/m² -2,5 °C 10,4 °C 0,0 km/h (0 Bft)
01/04/2026 22:00 9,3 °C 43 % 1009,4 hPa 0,0 mm 0,0 km/h (0 Bft) - - 0,00 h 0,051 mm 0 W/m² -2,7 °C 9,3 °C 0,0 km/h (0 Bft)
01/04/2026 23:00 8,7 °C 42 % 1008,9 hPa 0,0 mm 0,0 km/h (0 Bft) - - 0,00 h 0,051 mm 0 W/m² -3,3 °C 8,7 °C 0,0 km/h (0 Bft)
02/04/2026 00:00 8,4 °C 42 % 1008,3 hPa 0,0 mm 0,0 km/h (0 Bft) - - 0,00 h 0,025 mm 0 W/m² -3,6 °C 8,4 °C 0,0 km/h (0 Bft)
02/04/2026 01:00 8,3 °C 42 % 1007,9 hPa 0,0 mm 0,0 km/h (0 Bft) - - 0,00 h 0,025 mm 0 W/m² -3,8 °C 8,3 °C 0,0 km/h (0 Bft)
02/04/2026 02:00 8,4 °C 42 % 1007,3 hPa 0,0 mm 0,0 km/h (0 Bft) - - 0,00 h 0,025 mm 0 W/m² -3,7 °C 8,4 °C 0,0 km/h (0 Bft)
02/04/2026 03:00 8,3 °C 43 % 1006,8 hPa 0,0 mm 0,0 km/h (0 Bft) - - 0,00 h 0,025 mm 0 W/m² -3,5 °C 8,3 °C 0,0 km/h (0 Bft)
02/04/2026 04:00 8,5 °C 42 % 1006,4 hPa 0,0 mm 0,0 km/h (0 Bft) - - 0,00 h 0,025 mm 0 W/m² -3,6 °C 8,5 °C 0,0 km/h (0 Bft)
02/04/2026 05:00 8,7 °C 42 % 1005,8 hPa 0,0 mm 0,0 km/h (0 Bft) - - 0,00 h 0,025 mm 0 W/m² -3,5 °C 8,7 °C 0,0 km/h (0 Bft)
02/04/2026 06:00 8,0 °C 43 % 1005,7 hPa 0,0 mm 0,0 km/h (0 Bft) - - 0,00 h 0,025 mm 0 W/m² -3,8 °C 8,0 °C 0,0 km/h (0 Bft)
02/04/2026 07:00 8,1 °C 43 % 1005,5 hPa 0,0 mm 0,0 km/h (0 Bft) - - 0,00 h 0,000 mm 12 W/m² -3,6 °C 8,1 °C 0,0 km/h (0 Bft)
02/04/2026 08:00 9,1 °C 46 % 1005,8 hPa 0,0 mm 0,0 km/h (0 Bft) - - 0,07 h 0,025 mm 51 W/m² -2,0 °C 9,1 °C 0,0 km/h (0 Bft)
02/04/2026 09:00 12,0 °C 44 % 1005,8 hPa 0,0 mm 0,0 km/h (0 Bft) - - 1,00 h 0,025 mm 367 W/m² 0,2 °C 12,0 °C 0,0 km/h (0 Bft)
02/04/2026 10:00 16,6 °C 34 % 1005,4 hPa 0,0 mm 0,0 km/h (0 Bft) - - 1,00 h 0,178 mm 553 W/m² 0,7 °C 16,6 °C 0,0 km/h (0 Bft)
02/04/2026 11:00 19,3 °C 30 % 1005,1 hPa 0,0 mm 0,0 km/h (0 Bft) - - 1,00 h 0,305 mm 705 W/m² 1,4 °C 19,3 °C 0,0 km/h (0 Bft)
02/04/2026 12:00 19,7 °C 30 % 1004,9 hPa 0,0 mm 0,0 km/h (0 Bft) - - 1,00 h 0,406 mm 712 W/m² 1,5 °C 19,7 °C 0,0 km/h (0 Bft)
02/04/2026 13:00 18,9 °C 33 % 1004,7 hPa 0,0 mm 0,0 km/h (0 Bft) - - 1,00 h 0,406 mm 791 W/m² 2,3 °C 18,9 °C 0,0 km/h (0 Bft)
02/04/2026 14:00 18,7 °C 37 % 1004,5 hPa 0,0 mm 0,0 km/h (0 Bft) - - 1,00 h 0,457 mm 776 W/m² 3,8 °C 18,7 °C 0,0 km/h (0 Bft)
02/04/2026 15:00 18,2 °C 42 % 1004,1 hPa 0,0 mm 0,0 km/h (0 Bft) - - 1,00 h 0,432 mm 691 W/m² 5,1 °C 18,2 °C 0,0 km/h (0 Bft)
02/04/2026 16:00 17,6 °C 43 % 1004,0 hPa 0,0 mm 0,0 km/h (0 Bft) - - 1,00 h 0,381 mm 558 W/m² 5,0 °C 17,6 °C 0,0 km/h (0 Bft)
02/04/2026 17:00 16,8 °C 45 % 1004,1 hPa 0,0 mm 0,0 km/h (0 Bft) - - 1,00 h 0,305 mm 395 W/m² 4,7 °C 16,8 °C 0,0 km/h (0 Bft)
02/04/2026 18:00 15,6 °C 45 % 1004,5 hPa 0,0 mm 0,0 km/h (0 Bft) - - 0,83 h 0,229 mm 195 W/m² 3,8 °C 15,6 °C 0,0 km/h (0 Bft)
02/04/2026 19:00 13,8 °C 51 % 1005,0 hPa 0,0 mm 0,0 km/h (0 Bft) - - 0,03 h 0,102 mm 20 W/m² 3,7 °C 13,8 °C 0,0 km/h (0 Bft)
02/04/2026 20:00 12,0 °C 55 % 1005,8 hPa 0,0 mm 0,0 km/h (0 Bft) - - 0,00 h 0,025 mm 5 W/m² 3,2 °C 12,0 °C 0,0 km/h (0 Bft)
02/04/2026 21:00 10,5 °C 60 % 1006,3 hPa 0,0 mm 0,0 km/h (0 Bft) - - 0,00 h 0,000 mm 0 W/m² 3,1 °C 10,5 °C 0,0 km/h (0 Bft)
02/04/2026 22:00 9,8 °C 62 % 1006,5 hPa 0,0 mm 0,0 km/h (0 Bft) - - 0,00 h 0,025 mm 0 W/m² 2,8 °C 9,8 °C 0,0 km/h (0 Bft)
02/04/2026 23:00 9,7 °C 62 % 1006,8 hPa 0,0 mm 0,0 km/h (0 Bft) - - 0,00 h 0,025 mm 0 W/m² 2,7 °C 9,7 °C 0,0 km/h (0 Bft)
03/04/2026 00:00 9,8 °C 60 % 1007,1 hPa 0,0 mm 0,0 km/h (0 Bft) - - 0,00 h 0,025 mm 0 W/m² 2,3 °C 9,8 °C 0,0 km/h (0 Bft)
03/04/2026 01:00 10,2 °C 55 % 1007,6 hPa 0,0 mm 0,0 km/h (0 Bft) - - 0,00 h 0,025 mm 0 W/m² 1,7 °C 10,2 °C 0,0 km/h (0 Bft)
03/04/2026 02:00 9,9 °C 54 % 1007,9 hPa 0,0 mm 0,0 km/h (0 Bft) - - 0,00 h 0,025 mm 0 W/m² 1,1 °C 9,9 °C 0,0 km/h (0 Bft)
03/04/2026 03:00 10,3 °C 53 % 1008,2 hPa 0,0 mm 0,0 km/h (0 Bft) - - 0,00 h 0,025 mm 0 W/m² 1,0 °C 10,3 °C 0,0 km/h (0 Bft)
03/04/2026 04:00 9,8 °C 52 % 1008,6 hPa 0,0 mm 0,0 km/h (0 Bft) - - 0,00 h 0,025 mm 0 W/m² 0,4 °C 9,8 °C 0,0 km/h (0 Bft)
03/04/2026 05:00 9,6 °C 51 % 1009,0 hPa 0,0 mm 0,0 km/h (0 Bft) - - 0,00 h 0,025 mm 0 W/m² -0,0 °C 9,6 °C 0,0 km/h (0 Bft)
03/04/2026 06:00 10,2 °C 48 % 1009,6 hPa 0,0 mm 0,0 km/h (0 Bft) - - 0,00 h 0,025 mm 0 W/m² -0,4 °C 10,2 °C 0,0 km/h (0 Bft)
03/04/2026 07:00 10,4 °C 47 % 1010,4 hPa 0,0 mm 0,0 km/h (0 Bft) - - 0,00 h 0,000 mm 14 W/m² -0,5 °C 10,4 °C 0,0 km/h (0 Bft)
03/04/2026 08:00 11,3 °C 48 % 1011,0 hPa 0,0 mm 0,0 km/h (0 Bft) - - 0,00 h 0,025 mm 45 W/m² 0,7 °C 11,3 °C 0,0 km/h (0 Bft)
03/04/2026 09:00 14,6 °C 46 % 1011,8 hPa 0,0 mm 0,0 km/h (0 Bft) - - 0,87 h 0,025 mm 344 W/m² 3,0 °C 14,6 °C 0,0 km/h (0 Bft)
03/04/2026 10:00 18,7 °C 38 % 1012,1 hPa 0,0 mm 0,0 km/h (0 Bft) - - 1,00 h 0,178 mm 547 W/m² 4,0 °C 18,7 °C 0,0 km/h (0 Bft)
03/04/2026 11:00 22,1 °C 29 % 1012,4 hPa 0,0 mm 0,0 km/h (0 Bft) - - 1,00 h 0,305 mm 686 W/m² 3,4 °C 22,1 °C 0,0 km/h (0 Bft)
03/04/2026 12:00 23,2 °C 27 % 1012,4 hPa 0,0 mm 0,0 km/h (0 Bft) - - 1,00 h 0,406 mm 773 W/m² 3,2 °C 23,2 °C 0,0 km/h (0 Bft)
03/04/2026 13:00 22,7 °C 27 % 1012,4 hPa 0,0 mm 0,0 km/h (0 Bft) - - 1,00 h 0,483 mm 807 W/m² 2,8 °C 22,7 °C 0,0 km/h (0 Bft)
03/04/2026 14:00 22,3 °C 27 % 1012,3 hPa 0,0 mm 0,0 km/h (0 Bft) - - 1,00 h 0,483 mm 781 W/m² 2,1 °C 22,3 °C 0,0 km/h (0 Bft)
03/04/2026 15:00 21,6 °C 27 % 1012,4 hPa 0,0 mm 0,0 km/h (0 Bft) - - 1,00 h 0,483 mm 699 W/m² 2,0 °C 21,6 °C 0,0 km/h (0 Bft)
03/04/2026 16:00 21,5 °C 29 % 1012,4 hPa 0,0 mm 0,0 km/h (0 Bft) - - 1,00 h 0,432 mm 567 W/m² 2,9 °C 21,5 °C 0,0 km/h (0 Bft)
03/04/2026 17:00 20,8 °C 30 % 1012,6 hPa 0,0 mm 0,0 km/h (0 Bft) - - 1,00 h 0,356 mm 403 W/m² 2,5 °C 20,8 °C 0,0 km/h (0 Bft)
03/04/2026 18:00 18,8 °C 33 % 1012,9 hPa 0,0 mm 0,0 km/h (0 Bft) - - 0,82 h 0,254 mm 199 W/m² 2,2 °C 18,8 °C 0,0 km/h (0 Bft)
03/04/2026 19:00 16,8 °C 41 % 1013,3 hPa 0,0 mm 0,0 km/h (0 Bft) - - 0,02 h 0,127 mm 18 W/m² 3,3 °C 16,8 °C 0,0 km/h (0 Bft)
03/04/2026 20:00 14,2 °C 57 % 1014,0 hPa 0,0 mm 0,0 km/h (0 Bft) - - 0,00 h 0,025 mm 5 W/m² 5,8 °C 14,2 °C 0,0 km/h (0 Bft)
03/04/2026 21:00 12,3 °C 56 % 1014,5 hPa 0,0 mm 0,0 km/h (0 Bft) - - 0,00 h 0,000 mm 0 W/m² 3,7 °C 12,3 °C 0,0 km/h (0 Bft)
03/04/2026 22:00 11,3 °C 52 % 1014,8 hPa 0,0 mm 0,0 km/h (0 Bft) - - 0,00 h 0,025 mm 0 W/m² 1,9 °C 11,3 °C 0,0 km/h (0 Bft)
03/04/2026 23:00 11,0 °C 53 % 1015,1 hPa 0,0 mm 0,0 km/h (0 Bft) - - 0,00 h 0,025 mm 0 W/m² 1,8 °C 11,0 °C 0,0 km/h (0 Bft)
04/04/2026 00:00 11,0 °C 52 % 1015,2 hPa 0,0 mm 0,0 km/h (0 Bft) - - 0,00 h 0,025 mm 0 W/m² 1,6 °C 11,0 °C 0,0 km/h (0 Bft)
04/04/2026 01:00 10,8 °C 54 % 1015,7 hPa 0,0 mm 0,0 km/h (0 Bft) - - 0,00 h 0,025 mm 0 W/m² 2,0 °C 10,8 °C 0,0 km/h (0 Bft)
04/04/2026 02:00 10,3 °C 56 % 1015,8 hPa 0,0 mm 0,0 km/h (0 Bft) - - 0,00 h 0,025 mm 0 W/m² 1,9 °C 10,3 °C 0,0 km/h (0 Bft)
04/04/2026 03:00 10,5 °C 55 % 1016,2 hPa 0,0 mm 0,0 km/h (0 Bft) - - 0,00 h 0,025 mm 0 W/m² 1,8 °C 10,5 °C 0,0 km/h (0 Bft)
04/04/2026 04:00 10,9 °C 53 % 1016,3 hPa 0,0 mm 0,0 km/h (0 Bft) - - 0,00 h 0,025 mm 0 W/m² 1,6 °C 10,9 °C 0,0 km/h (0 Bft)
04/04/2026 05:00 11,8 °C 47 % 1016,7 hPa 0,0 mm 0,0 km/h (0 Bft) - - 0,00 h 0,025 mm 0 W/m² 0,9 °C 11,8 °C 0,0 km/h (0 Bft)
04/04/2026 06:00 11,8 °C 43 % 1017,0 hPa 0,0 mm 0,0 km/h (0 Bft) - - 0,00 h 0,051 mm 0 W/m² -0,2 °C 11,8 °C 0,0 km/h (0 Bft)
04/04/2026 07:00 11,4 °C 42 % 1017,7 hPa 0,0 mm 0,0 km/h (0 Bft) - - 0,03 h 0,000 mm 14 W/m² -0,9 °C 11,4 °C 0,0 km/h (0 Bft)
04/04/2026 08:00 12,2 °C 44 % 1018,6 hPa 0,0 mm 0,0 km/h (0 Bft) - - 0,03 h 0,025 mm 47 W/m² 0,2 °C 12,2 °C 0,0 km/h (0 Bft)
04/04/2026 09:00 15,1 °C 44 % 1019,4 hPa 0,0 mm 0,0 km/h (0 Bft) - - 0,65 h 0,025 mm 326 W/m² 3,0 °C 15,1 °C 0,0 km/h (0 Bft)
04/04/2026 10:00 19,7 °C 39 % 1019,8 hPa 0,0 mm 0,0 km/h (0 Bft) - - 1,00 h 0,178 mm 547 W/m² 5,4 °C 19,7 °C 0,0 km/h (0 Bft)
04/04/2026 11:00 22,4 °C 36 % 1020,0 hPa 0,0 mm 0,0 km/h (0 Bft) - - 1,00 h 0,330 mm 682 W/m² 6,4 °C 22,4 °C 0,0 km/h (0 Bft)
04/04/2026 12:00 23,9 °C 33 % 1020,0 hPa 0,0 mm 0,0 km/h (0 Bft) - - 1,00 h 0,406 mm 770 W/m² 6,6 °C 23,9 °C 0,0 km/h (0 Bft)
04/04/2026 13:00 23,4 °C 35 % 1020,3 hPa 0,0 mm 0,0 km/h (0 Bft) - - 1,00 h 0,483 mm 805 W/m² 7,0 °C 23,4 °C 0,0 km/h (0 Bft)
04/04/2026 14:00 22,0 °C 47 % 1020,6 hPa 0,0 mm 0,0 km/h (0 Bft) - - 1,00 h 0,508 mm 775 W/m² 10,2 °C 22,0 °C 0,0 km/h (0 Bft)
04/04/2026 15:00 21,9 °C 50 % 1020,5 hPa 0,0 mm 0,0 km/h (0 Bft) - - 1,00 h 0,457 mm 690 W/m² 11,1 °C 21,9 °C 0,0 km/h (0 Bft)
04/04/2026 16:00 21,9 °C 57 % 1020,0 hPa 0,0 mm 0,0 km/h (0 Bft) - - 1,00 h 0,406 mm 559 W/m² 12,9 °C 21,9 °C 0,0 km/h (0 Bft)
04/04/2026 17:00 21,3 °C 58 % 1019,8 hPa 0,0 mm 0,0 km/h (0 Bft) - - 1,00 h 0,330 mm 395 W/m² 12,8 °C 21,3 °C 0,0 km/h (0 Bft)
04/04/2026 18:00 20,2 °C 62 % 1019,8 hPa 0,0 mm 0,0 km/h (0 Bft) - - 0,78 h 0,229 mm 193 W/m² 12,8 °C 20,2 °C 0,0 km/h (0 Bft)
04/04/2026 19:00 17,8 °C 74 % 1019,9 hPa 0,0 mm 0,0 km/h (0 Bft) - - 0,00 h 0,127 mm 19 W/m² 13,0 °C 17,8 °C 0,0 km/h (0 Bft)
04/04/2026 20:00 15,0 °C 84 % 1020,1 hPa 0,0 mm 0,0 km/h (0 Bft) - - 0,00 h 0,025 mm 0 W/m² 12,4 °C 15,0 °C 0,0 km/h (0 Bft)
04/04/2026 21:00 13,6 °C 87 % 1020,4 hPa 0,0 mm 0,0 km/h (0 Bft) - - 0,00 h 0,000 mm 0 W/m² 11,6 °C 13,6 °C 0,0 km/h (0 Bft)
04/04/2026 22:00 12,7 °C 82 % 1020,4 hPa 0,0 mm 0,0 km/h (0 Bft) - - 0,00 h 0,000 mm 0 W/m² 9,7 °C 12,7 °C 0,0 km/h (0 Bft)
04/04/2026 23:00 12,9 °C 71 % 1020,6 hPa 0,0 mm 0,0 km/h (0 Bft) - - 0,00 h 0,025 mm 0 W/m² 7,7 °C 12,9 °C 0,0 km/h (0 Bft)
05/04/2026 00:00 13,1 °C 66 % 1020,8 hPa 0,0 mm 0,0 km/h (0 Bft) - - 0,00 h 0,025 mm 0 W/m² 7,0 °C 13,1 °C 0,0 km/h (0 Bft)
05/04/2026 01:00 12,8 °C 65 % 1021,0 hPa 0,0 mm 0,0 km/h (0 Bft) - - 0,00 h 0,025 mm 0 W/m² 6,3 °C 12,8 °C 0,0 km/h (0 Bft)
05/04/2026 02:00 12,1 °C 66 % 1021,3 hPa 0,0 mm 0,0 km/h (0 Bft) - - 0,00 h 0,025 mm 0 W/m² 6,0 °C 12,1 °C 0,0 km/h (0 Bft)
05/04/2026 03:00 12,0 °C 68 % 1021,2 hPa 0,0 mm 0,0 km/h (0 Bft) - - 0,00 h 0,025 mm 0 W/m² 6,2 °C 12,0 °C 0,0 km/h (0 Bft)
05/04/2026 04:00 11,6 °C 72 % 1021,4 hPa 0,0 mm 0,0 km/h (0 Bft) - - 0,00 h 0,025 mm 0 W/m² 6,7 °C 11,6 °C 0,0 km/h (0 Bft)
05/04/2026 05:00 11,1 °C 77 % 1021,6 hPa 0,0 mm 0,0 km/h (0 Bft) - - 0,00 h 0,025 mm 0 W/m² 7,3 °C 11,1 °C 0,0 km/h (0 Bft)
05/04/2026 06:00 10,5 °C 81 % 1021,9 hPa 0,0 mm 0,0 km/h (0 Bft) - - 0,00 h 0,025 mm 0 W/m² 7,5 °C 10,5 °C 0,0 km/h (0 Bft)
05/04/2026 07:00 10,7 °C 89 % 1022,4 hPa 0,0 mm 0,0 km/h (0 Bft) - - 0,02 h 0,000 mm 16 W/m² 8,9 °C 10,7 °C 0,0 km/h (0 Bft)
05/04/2026 08:00 11,3 °C 91 % 1022,9 hPa 0,0 mm 0,0 km/h (0 Bft) - - 0,00 h 0,000 mm 45 W/m² 9,9 °C 11,3 °C 0,0 km/h (0 Bft)
05/04/2026 09:00 14,4 °C 80 % 1023,3 hPa 0,0 mm 0,0 km/h (0 Bft) - - 0,72 h 0,025 mm 312 W/m² 11,0 °C 14,4 °C 0,0 km/h (0 Bft)
05/04/2026 10:00 18,2 °C 62 % 1023,5 hPa 0,0 mm 0,0 km/h (0 Bft) - - 1,00 h 0,152 mm 528 W/m² 10,9 °C 18,2 °C 0,0 km/h (0 Bft)
05/04/2026 11:00 20,3 °C 59 % 1023,6 hPa 0,0 mm 0,0 km/h (0 Bft) - - 1,00 h 0,305 mm 678 W/m² 12,1 °C 20,3 °C 0,0 km/h (0 Bft)
05/04/2026 12:00 20,5 °C 62 % 1023,9 hPa 0,0 mm 0,0 km/h (0 Bft) - - 1,00 h 0,381 mm 757 W/m² 12,9 °C 20,5 °C 0,0 km/h (0 Bft)
05/04/2026 13:00 20,6 °C 67 % 1023,9 hPa 0,0 mm 0,0 km/h (0 Bft) - - 1,00 h 0,432 mm 795 W/m² 14,2 °C 20,6 °C 0,0 km/h (0 Bft)
05/04/2026 14:00 20,1 °C 69 % 1023,6 hPa 0,0 mm 0,0 km/h (0 Bft) - - 0,98 h 0,457 mm 770 W/m² 14,3 °C 20,1 °C 0,0 km/h (0 Bft)
05/04/2026 15:00 20,2 °C 68 % 1023,4 hPa 0,0 mm 0,0 km/h (0 Bft) - - 1,00 h 0,432 mm 686 W/m² 14,2 °C 20,2 °C 0,0 km/h (0 Bft)
05/04/2026 16:00 19,7 °C 69 % 1023,0 hPa 0,0 mm 0,0 km/h (0 Bft) - - 1,00 h 0,406 mm 558 W/m² 13,9 °C 19,7 °C 0,0 km/h (0 Bft)
05/04/2026 17:00 18,8 °C 73 % 1022,7 hPa 0,0 mm 0,0 km/h (0 Bft) - - 1,00 h 0,330 mm 394 W/m² 13,9 °C 18,8 °C 0,0 km/h (0 Bft)
05/04/2026 18:00 17,2 °C 78 % 1022,7 hPa 0,0 mm 0,0 km/h (0 Bft) - - 0,80 h 0,229 mm 193 W/m² 13,4 °C 17,2 °C 0,0 km/h (0 Bft)
05/04/2026 19:00 15,2 °C 83 % 1022,7 hPa 0,0 mm 0,0 km/h (0 Bft) - - 0,00 h 0,102 mm 20 W/m² 12,4 °C 15,2 °C 0,0 km/h (0 Bft)
05/04/2026 20:00 13,5 °C 88 % 1022,7 hPa 0,0 mm 0,0 km/h (0 Bft) - - 0,00 h 0,025 mm 5 W/m² 11,5 °C 13,5 °C 0,0 km/h (0 Bft)
05/04/2026 21:00 12,4 °C 90 % 1023,0 hPa 0,0 mm 0,0 km/h (0 Bft) - - 0,00 h 0,000 mm 0 W/m² 10,8 °C 12,4 °C 0,0 km/h (0 Bft)
05/04/2026 22:00 11,9 °C 92 % 1023,1 hPa 0,0 mm 0,0 km/h (0 Bft) - - 0,00 h 0,000 mm 0 W/m² 10,6 °C 11,9 °C 0,0 km/h (0 Bft)
05/04/2026 23:00 11,7 °C 93 % 1023,1 hPa 0,0 mm 0,0 km/h (0 Bft) - - 0,00 h 0,000 mm 0 W/m² 10,6 °C 11,7 °C 0,0 km/h (0 Bft)
Min-Date _ 01/04/26 31/03/26 02/04/26 - 30/03/26 - - - - 01/04/26 01/04/26 30/03/26
_ Min-Heure 07:28 14:37 16:15 - 00:00 - - - - 02:32 07:28 00:00
Minimum _ 5,8 °C 16 % 1003,9 hPa - 0,0 km/h (0 Bft) - - - - -10,2 °C 5,8 °C 0,0 km/h (0 Bft)
Max-Date _ 04/04/26 05/04/26 05/04/26 30/03/26 30/03/26 - 30/03/26 04/04/26 31/03/26 05/04/26 04/04/26 01/04/26
_ Max-Heure 12:30 22:42 13:15 00:00 00:00 - 07:27 14:00 14:09 14:36 12:30 08:47
Maximum _ 24,3 °C 93 % 1024,0 hPa 0,0 mm 0,0 km/h
- - (0 Bft)
- 0,02 h 0,508 mm 916 W/m² 14,7 °C 24,3 °C 1,6 km/h
NO (1 Bft)
Moyenne _ 13,8 °C 49 % 1013,3 hPa #0,0 mm 0,0 km/h (0 Bft) - - #66:18 h #25,127 mm 425 W/m² 2,4 °C 13,8 °C 0,0 km/h (0 Bft)
Roquefort les pins